FMCH

Prince Said Ibrahim International Airport

Moroni, Comoros
METAR FMCH 180700Z 25003KT 210V290 9999 SCT020 30/24 Q1013 NOSIG
Observed Flight Rules
Feb-18 @ 07:00 UTC (14 minutes ago) Visual Flight Rules
Wind Visibility Clouds
250° at 3 knots 10,000+ meters
  • Scattered at 2,000' AGL
Temperatures Readings
Current 30°C / 86°F
Dewpoint 24°C / 75°F
Humidity 70%
Altimeter 29.91" Hg
Pressure 1013 hPa
Elevation 29
METAR FMCH 180700Z 25003KT 210V290 9999 SCT020 30/24 Q1013 NOSIG
Observed Flight Rules
Feb-18 @ 07:00 UTC
(14 minutes ago)
VFR
Wind Visibility
250° at 3 knots 10,000+ meters
Clouds
  • Scattered at 2,000' AGL
Temperature Dewpoint
30°C / 86°F 24°C / 75°F
Humidity Altimeter Pressure
70% 29.91" Hg 1013 hPa